sensor_id;sensor_type;location;lat;lon;timestamp;P1;durP1;ratioP1;P2;durP2;ratioP2
68944;SDS011;55984;48.790;8.990;2022-11-02T00:01:45;19.60;;;8.30;;
68944;SDS011;55984;48.790;8.990;2022-11-02T00:04:10;21.10;;;8.00;;
68944;SDS011;55984;48.790;8.990;2022-11-02T00:06:35;25.83;;;8.70;;
68944;SDS011;55984;48.790;8.990;2022-11-02T00:09:01;20.07;;;8.23;;
68944;SDS011;55984;48.790;8.990;2022-11-02T00:11:27;22.57;;;8.37;;
68944;SDS011;55984;48.790;8.990;2022-11-02T00:13:52;19.70;;;8.33;;
68944;SDS011;55984;48.790;8.990;2022-11-02T00:16:18;45.43;;;16.10;;
68944;SDS011;55984;48.790;8.990;2022-11-02T00:18:47;34.63;;;10.97;;
68944;SDS011;55984;48.790;8.990;2022-11-02T00:21:15;23.90;;;10.20;;
68944;SDS011;55984;48.790;8.990;2022-11-02T00:23:42;37.40;;;13.20;;
68944;SDS011;55984;48.790;8.990;2022-11-02T00:26:08;39.83;;;15.43;;
68944;SDS011;55984;48.790;8.990;2022-11-02T00:28:34;54.03;;;17.73;;
68944;SDS011;55984;48.790;8.990;2022-11-02T00:30:59;56.20;;;21.17;;
68944;SDS011;55984;48.790;8.990;2022-11-02T00:33:25;53.03;;;19.77;;
68944;SDS011;55984;48.790;8.990;2022-11-02T00:35:51;63.60;;;22.50;;
68944;SDS011;55984;48.790;8.990;2022-11-02T00:38:18;57.73;;;22.93;;
68944;SDS011;55984;48.790;8.990;2022-11-02T00:40:43;57.10;;;21.90;;
68944;SDS011;55984;48.790;8.990;2022-11-02T00:43:09;46.73;;;18.23;;
68944;SDS011;55984;48.790;8.990;2022-11-02T00:45:34;42.03;;;15.70;;
68944;SDS011;55984;48.790;8.990;2022-11-02T00:48:00;43.47;;;15.70;;
68944;SDS011;55984;48.790;8.990;2022-11-02T00:50:25;45.90;;;17.07;;
68944;SDS011;55984;48.790;8.990;2022-11-02T00:52:54;61.57;;;22.20;;
68944;SDS011;55984;48.790;8.990;2022-11-02T00:55:19;49.93;;;16.30;;
68944;SDS011;55984;48.790;8.990;2022-11-02T00:57:45;42.57;;;14.60;;
68944;SDS011;55984;48.790;8.990;2022-11-02T01:00:11;35.30;;;12.77;;
68944;SDS011;55984;48.790;8.990;2022-11-02T01:02:37;31.83;;;11.83;;
68944;SDS011;55984;48.790;8.990;2022-11-02T01:05:03;29.33;;;10.77;;
68944;SDS011;55984;48.790;8.990;2022-11-02T01:07:29;34.37;;;10.80;;
68944;SDS011;55984;48.790;8.990;2022-11-02T01:09:55;27.00;;;10.13;;
68944;SDS011;55984;48.790;8.990;2022-11-02T01:12:20;38.57;;;10.80;;
68944;SDS011;55984;48.790;8.990;2022-11-02T01:14:46;34.13;;;9.70;;
68944;SDS011;55984;48.790;8.990;2022-11-02T01:17:15;28.07;;;9.70;;
68944;SDS011;55984;48.790;8.990;2022-11-02T01:19:41;34.83;;;11.17;;
68944;SDS011;55984;48.790;8.990;2022-11-02T01:22:07;70.03;;;23.93;;
68944;SDS011;55984;48.790;8.990;2022-11-02T01:24:32;37.60;;;14.30;;
68944;SDS011;55984;48.790;8.990;2022-11-02T01:26:57;63.43;;;19.33;;
68944;SDS011;55984;48.790;8.990;2022-11-02T01:29:23;47.03;;;14.87;;
68944;SDS011;55984;48.790;8.990;2022-11-02T01:31:48;41.67;;;16.27;;
68944;SDS011;55984;48.790;8.990;2022-11-02T01:34:14;49.03;;;18.30;;
68944;SDS011;55984;48.790;8.990;2022-11-02T01:36:39;54.03;;;19.17;;
68944;SDS011;55984;48.790;8.990;2022-11-02T01:39:06;59.43;;;19.50;;
68944;SDS011;55984;48.790;8.990;2022-11-02T01:41:32;52.23;;;17.80;;
68944;SDS011;55984;48.790;8.990;2022-11-02T01:43:57;52.57;;;18.60;;
68944;SDS011;55984;48.790;8.990;2022-11-02T01:46:41;94.43;;;31.27;;
68944;SDS011;55984;48.790;8.990;2022-11-02T01:49:15;46.33;;;16.50;;
68944;SDS011;55984;48.790;8.990;2022-11-02T01:54:26;62.20;;;20.23;;
68944;SDS011;55984;48.790;8.990;2022-11-02T01:57:02;38.57;;;14.20;;
68944;SDS011;55984;48.790;8.990;2022-11-02T01:59:31;26.47;;;9.40;;
68944;SDS011;55984;48.790;8.990;2022-11-02T02:02:02;26.60;;;8.03;;
68944;SDS011;55984;48.790;8.990;2022-11-02T02:04:31;24.53;;;8.30;;
68944;SDS011;55984;48.790;8.990;2022-11-02T02:06:57;28.90;;;8.50;;
68944;SDS011;55984;48.790;8.990;2022-11-02T02:09:23;37.50;;;8.53;;
68944;SDS011;55984;48.790;8.990;2022-11-02T02:11:49;23.37;;;7.80;;
68944;SDS011;55984;48.790;8.990;2022-11-02T02:14:15;26.87;;;9.30;;
68944;SDS011;55984;48.790;8.990;2022-11-02T02:16:45;34.67;;;8.77;;
68944;SDS011;55984;48.790;8.990;2022-11-02T02:19:26;27.37;;;9.50;;
68944;SDS011;55984;48.790;8.990;2022-11-02T02:22:15;22.93;;;9.70;;
68944;SDS011;55984;48.790;8.990;2022-11-02T02:30:23;22.10;;;8.50;;
68944;SDS011;55984;48.790;8.990;2022-11-02T02:32:52;19.73;;;8.53;;
68944;SDS011;55984;48.790;8.990;2022-11-02T02:35:29;27.60;;;8.90;;
68944;SDS011;55984;48.790;8.990;2022-11-02T02:38:03;18.10;;;7.80;;
68944;SDS011;55984;48.790;8.990;2022-11-02T02:40:34;18.10;;;7.80;;
68944;SDS011;55984;48.790;8.990;2022-11-02T02:43:03;24.83;;;8.40;;
68944;SDS011;55984;48.790;8.990;2022-11-02T02:45:43;26.47;;;7.93;;
68944;SDS011;55984;48.790;8.990;2022-11-02T02:48:15;18.03;;;8.10;;
68944;SDS011;55984;48.790;8.990;2022-11-02T02:50:47;23.33;;;8.20;;
68944;SDS011;55984;48.790;8.990;2022-11-02T02:53:14;22.97;;;9.20;;
68944;SDS011;55984;48.790;8.990;2022-11-02T02:55:43;26.50;;;8.13;;
68944;SDS011;55984;48.790;8.990;2022-11-02T02:58:13;26.63;;;8.83;;
68944;SDS011;55984;48.790;8.990;2022-11-02T03:00:51;21.60;;;8.80;;
68944;SDS011;55984;48.790;8.990;2022-11-02T03:03:19;19.00;;;7.40;;
68944;SDS011;55984;48.790;8.990;2022-11-02T03:06:03;16.67;;;6.47;;
68944;SDS011;55984;48.790;8.990;2022-11-02T03:08:35;14.93;;;6.27;;
68944;SDS011;55984;48.790;8.990;2022-11-02T03:19:00;16.60;;;5.70;;
68944;SDS011;55984;48.790;8.990;2022-11-02T03:21:36;16.20;;;6.67;;
68944;SDS011;55984;48.790;8.990;2022-11-02T03:29:41;15.50;;;5.50;;
68944;SDS011;55984;48.790;8.990;2022-11-02T03:35:24;14.97;;;5.00;;
68944;SDS011;55984;48.790;8.990;2022-11-02T03:38:11;15.30;;;4.83;;
68944;SDS011;55984;48.790;8.990;2022-11-02T03:40:46;16.10;;;5.27;;
68944;SDS011;55984;48.790;8.990;2022-11-02T03:43:14;11.50;;;4.90;;
68944;SDS011;55984;48.790;8.990;2022-11-02T03:45:43;8.03;;;4.27;;
68944;SDS011;55984;48.790;8.990;2022-11-02T03:48:14;11.50;;;5.70;;
68944;SDS011;55984;48.790;8.990;2022-11-02T03:50:43;9.73;;;4.30;;
68944;SDS011;55984;48.790;8.990;2022-11-02T03:53:22;12.30;;;5.13;;
68944;SDS011;55984;48.790;8.990;2022-11-02T03:55:57;9.63;;;4.70;;
68944;SDS011;55984;48.790;8.990;2022-11-02T03:58:26;21.80;;;4.90;;
68944;SDS011;55984;48.790;8.990;2022-11-02T04:00:53;15.33;;;4.90;;
68944;SDS011;55984;48.790;8.990;2022-11-02T04:03:22;10.00;;;4.70;;
68944;SDS011;55984;48.790;8.990;2022-11-02T04:05:48;11.30;;;4.47;;
68944;SDS011;55984;48.790;8.990;2022-11-02T04:08:15;13.83;;;4.60;;
68944;SDS011;55984;48.790;8.990;2022-11-02T04:10:44;15.00;;;4.40;;
68944;SDS011;55984;48.790;8.990;2022-11-02T04:13:29;9.20;;;4.27;;
68944;SDS011;55984;48.790;8.990;2022-11-02T04:16:13;16.13;;;4.90;;
68944;SDS011;55984;48.790;8.990;2022-11-02T04:18:40;12.73;;;4.20;;
68944;SDS011;55984;48.790;8.990;2022-11-02T04:21:24;16.23;;;4.70;;
68944;SDS011;55984;48.790;8.990;2022-11-02T04:23:50;15.70;;;4.50;;
68944;SDS011;55984;48.790;8.990;2022-11-02T04:26:34;10.37;;;4.77;;
68944;SDS011;55984;48.790;8.990;2022-11-02T04:28:59;10.63;;;4.30;;
68944;SDS011;55984;48.790;8.990;2022-11-02T04:31:24;10.13;;;4.40;;
68944;SDS011;55984;48.790;8.990;2022-11-02T04:33:50;9.43;;;4.10;;
68944;SDS011;55984;48.790;8.990;2022-11-02T04:36:15;10.47;;;4.57;;
68944;SDS011;55984;48.790;8.990;2022-11-02T04:38:41;11.27;;;4.40;;
68944;SDS011;55984;48.790;8.990;2022-11-02T04:41:07;10.90;;;3.80;;
68944;SDS011;55984;48.790;8.990;2022-11-02T04:43:53;10.30;;;4.20;;
68944;SDS011;55984;48.790;8.990;2022-11-02T04:46:19;13.73;;;4.50;;
68944;SDS011;55984;48.790;8.990;2022-11-02T04:48:46;12.67;;;3.97;;
68944;SDS011;55984;48.790;8.990;2022-11-02T04:51:11;11.27;;;3.90;;
68944;SDS011;55984;48.790;8.990;2022-11-02T04:53:37;13.30;;;3.97;;
68944;SDS011;55984;48.790;8.990;2022-11-02T04:56:02;14.40;;;4.30;;
68944;SDS011;55984;48.790;8.990;2022-11-02T04:58:28;11.97;;;4.30;;
68944;SDS011;55984;48.790;8.990;2022-11-02T05:00:53;9.60;;;4.23;;
68944;SDS011;55984;48.790;8.990;2022-11-02T05:03:18;13.20;;;4.30;;
68944;SDS011;55984;48.790;8.990;2022-11-02T05:05:44;10.33;;;4.60;;
68944;SDS011;55984;48.790;8.990;2022-11-02T05:08:09;9.20;;;4.23;;
68944;SDS011;55984;48.790;8.990;2022-11-02T05:10:34;12.20;;;3.80;;
68944;SDS011;55984;48.790;8.990;2022-11-02T05:13:01;11.20;;;4.20;;
68944;SDS011;55984;48.790;8.990;2022-11-02T05:15:26;16.70;;;3.60;;
68944;SDS011;55984;48.790;8.990;2022-11-02T05:17:51;11.77;;;3.87;;
68944;SDS011;55984;48.790;8.990;2022-11-02T05:20:17;13.57;;;4.23;;
68944;SDS011;55984;48.790;8.990;2022-11-02T05:22:42;15.90;;;3.97;;
68944;SDS011;55984;48.790;8.990;2022-11-02T05:25:09;8.97;;;3.20;;
68944;SDS011;55984;48.790;8.990;2022-11-02T05:27:35;13.33;;;3.47;;
68944;SDS011;55984;48.790;8.990;2022-11-02T05:30:00;8.47;;;3.93;;
68944;SDS011;55984;48.790;8.990;2022-11-02T05:32:29;14.83;;;4.13;;
68944;SDS011;55984;48.790;8.990;2022-11-02T05:34:58;7.07;;;3.33;;
68944;SDS011;55984;48.790;8.990;2022-11-02T05:37:23;10.10;;;3.90;;
68944;SDS011;55984;48.790;8.990;2022-11-02T05:39:48;8.67;;;3.10;;
68944;SDS011;55984;48.790;8.990;2022-11-02T05:42:14;13.80;;;3.47;;
68944;SDS011;55984;48.790;8.990;2022-11-02T05:44:39;8.73;;;3.70;;
68944;SDS011;55984;48.790;8.990;2022-11-02T05:47:05;10.03;;;3.67;;
68944;SDS011;55984;48.790;8.990;2022-11-02T05:49:30;10.23;;;3.17;;
68944;SDS011;55984;48.790;8.990;2022-11-02T05:51:56;19.13;;;3.97;;
68944;SDS011;55984;48.790;8.990;2022-11-02T05:54:21;6.07;;;2.87;;
68944;SDS011;55984;48.790;8.990;2022-11-02T05:56:47;12.77;;;3.77;;
68944;SDS011;55984;48.790;8.990;2022-11-02T05:59:12;9.83;;;3.00;;
68944;SDS011;55984;48.790;8.990;2022-11-02T06:01:38;8.20;;;3.00;;
68944;SDS011;55984;48.790;8.990;2022-11-02T06:04:03;10.63;;;3.20;;
68944;SDS011;55984;48.790;8.990;2022-11-02T06:06:29;16.17;;;4.33;;
68944;SDS011;55984;48.790;8.990;2022-11-02T06:08:55;14.30;;;3.33;;
68944;SDS011;55984;48.790;8.990;2022-11-02T06:11:20;9.97;;;2.93;;
68944;SDS011;55984;48.790;8.990;2022-11-02T06:13:47;9.13;;;2.80;;
68944;SDS011;55984;48.790;8.990;2022-11-02T06:16:14;9.73;;;3.63;;
68944;SDS011;55984;48.790;8.990;2022-11-02T06:18:40;11.30;;;3.00;;
68944;SDS011;55984;48.790;8.990;2022-11-02T06:21:07;13.53;;;3.13;;
68944;SDS011;55984;48.790;8.990;2022-11-02T06:23:33;9.63;;;2.80;;
68944;SDS011;55984;48.790;8.990;2022-11-02T06:25:59;6.47;;;2.97;;
68944;SDS011;55984;48.790;8.990;2022-11-02T06:28:25;15.53;;;3.50;;
68944;SDS011;55984;48.790;8.990;2022-11-02T06:30:51;9.03;;;2.80;;
68944;SDS011;55984;48.790;8.990;2022-11-02T06:33:17;17.37;;;3.27;;
68944;SDS011;55984;48.790;8.990;2022-11-02T06:35:43;11.47;;;2.90;;
68944;SDS011;55984;48.790;8.990;2022-11-02T06:38:10;7.57;;;2.93;;
68944;SDS011;55984;48.790;8.990;2022-11-02T06:40:36;7.83;;;2.87;;
68944;SDS011;55984;48.790;8.990;2022-11-02T06:43:02;15.50;;;3.40;;
68944;SDS011;55984;48.790;8.990;2022-11-02T06:45:27;11.73;;;3.30;;
68944;SDS011;55984;48.790;8.990;2022-11-02T06:47:53;18.50;;;3.90;;
68944;SDS011;55984;48.790;8.990;2022-11-02T06:50:18;11.53;;;3.27;;
68944;SDS011;55984;48.790;8.990;2022-11-02T06:52:45;12.93;;;3.40;;
68944;SDS011;55984;48.790;8.990;2022-11-02T06:55:11;15.67;;;3.07;;
68944;SDS011;55984;48.790;8.990;2022-11-02T06:57:38;9.90;;;2.80;;
68944;SDS011;55984;48.790;8.990;2022-11-02T07:00:05;7.67;;;3.00;;
68944;SDS011;55984;48.790;8.990;2022-11-02T07:02:33;10.17;;;3.40;;
68944;SDS011;55984;48.790;8.990;2022-11-02T07:04:59;15.37;;;3.33;;
68944;SDS011;55984;48.790;8.990;2022-11-02T07:07:24;9.60;;;2.70;;
68944;SDS011;55984;48.790;8.990;2022-11-02T07:09:49;8.73;;;2.90;;
68944;SDS011;55984;48.790;8.990;2022-11-02T07:12:15;8.50;;;2.80;;
68944;SDS011;55984;48.790;8.990;2022-11-02T07:14:40;6.17;;;2.70;;
68944;SDS011;55984;48.790;8.990;2022-11-02T07:17:05;7.30;;;2.63;;
68944;SDS011;55984;48.790;8.990;2022-11-02T07:19:31;9.17;;;2.80;;
68944;SDS011;55984;48.790;8.990;2022-11-02T07:21:56;17.13;;;3.10;;
68944;SDS011;55984;48.790;8.990;2022-11-02T07:24:22;7.83;;;2.80;;
68944;SDS011;55984;48.790;8.990;2022-11-02T07:26:48;8.37;;;2.53;;
68944;SDS011;55984;48.790;8.990;2022-11-02T07:29:17;7.90;;;2.53;;
68944;SDS011;55984;48.790;8.990;2022-11-02T07:31:43;8.23;;;3.70;;
68944;SDS011;55984;48.790;8.990;2022-11-02T07:34:09;8.23;;;2.73;;
68944;SDS011;55984;48.790;8.990;2022-11-02T07:36:36;11.87;;;2.70;;
68944;SDS011;55984;48.790;8.990;2022-11-02T07:39:01;15.13;;;3.90;;
68944;SDS011;55984;48.790;8.990;2022-11-02T07:41:27;10.50;;;3.37;;
68944;SDS011;55984;48.790;8.990;2022-11-02T07:43:52;9.73;;;3.00;;
68944;SDS011;55984;48.790;8.990;2022-11-02T07:46:18;12.23;;;2.93;;
68944;SDS011;55984;48.790;8.990;2022-11-02T07:48:43;11.23;;;2.97;;
68944;SDS011;55984;48.790;8.990;2022-11-02T07:51:09;12.53;;;2.60;;
68944;SDS011;55984;48.790;8.990;2022-11-02T07:53:35;11.67;;;2.70;;
68944;SDS011;55984;48.790;8.990;2022-11-02T07:56:01;12.03;;;2.67;;
68944;SDS011;55984;48.790;8.990;2022-11-02T07:58:28;13.50;;;3.07;;
68944;SDS011;55984;48.790;8.990;2022-11-02T08:00:55;11.87;;;2.77;;
68944;SDS011;55984;48.790;8.990;2022-11-02T08:03:22;9.63;;;2.33;;
68944;SDS011;55984;48.790;8.990;2022-11-02T08:05:47;10.27;;;2.30;;
68944;SDS011;55984;48.790;8.990;2022-11-02T08:08:13;5.73;;;2.23;;
68944;SDS011;55984;48.790;8.990;2022-11-02T08:10:44;13.37;;;3.13;;
68944;SDS011;55984;48.790;8.990;2022-11-02T08:13:12;6.30;;;2.57;;
68944;SDS011;55984;48.790;8.990;2022-11-02T08:15:38;9.63;;;2.60;;
68944;SDS011;55984;48.790;8.990;2022-11-02T08:18:05;6.00;;;2.60;;
68944;SDS011;55984;48.790;8.990;2022-11-02T08:20:33;10.43;;;2.80;;
68944;SDS011;55984;48.790;8.990;2022-11-02T08:23:00;9.97;;;2.30;;
68944;SDS011;55984;48.790;8.990;2022-11-02T08:25:25;6.23;;;2.70;;
68944;SDS011;55984;48.790;8.990;2022-11-02T08:27:54;8.80;;;2.40;;
68944;SDS011;55984;48.790;8.990;2022-11-02T08:30:21;11.50;;;2.40;;
68944;SDS011;55984;48.790;8.990;2022-11-02T08:32:46;4.73;;;1.97;;
68944;SDS011;55984;48.790;8.990;2022-11-02T08:35:11;11.00;;;2.30;;
68944;SDS011;55984;48.790;8.990;2022-11-02T08:37:36;6.13;;;2.13;;
68944;SDS011;55984;48.790;8.990;2022-11-02T08:40:02;4.87;;;2.23;;
68944;SDS011;55984;48.790;8.990;2022-11-02T08:42:27;9.27;;;2.60;;
68944;SDS011;55984;48.790;8.990;2022-11-02T08:44:53;7.33;;;2.40;;
68944;SDS011;55984;48.790;8.990;2022-11-02T08:47:18;8.30;;;2.57;;
68944;SDS011;55984;48.790;8.990;2022-11-02T08:49:44;8.20;;;2.40;;
68944;SDS011;55984;48.790;8.990;2022-11-02T08:52:11;7.83;;;2.60;;
68944;SDS011;55984;48.790;8.990;2022-11-02T08:54:36;7.83;;;2.60;;
68944;SDS011;55984;48.790;8.990;2022-11-02T08:57:02;7.47;;;2.53;;
68944;SDS011;55984;48.790;8.990;2022-11-02T08:59:27;8.37;;;2.40;;
68944;SDS011;55984;48.790;8.990;2022-11-02T09:01:53;5.87;;;2.10;;
68944;SDS011;55984;48.790;8.990;2022-11-02T09:04:18;6.43;;;2.30;;
68944;SDS011;55984;48.790;8.990;2022-11-02T09:06:43;7.93;;;2.50;;
68944;SDS011;55984;48.790;8.990;2022-11-02T09:09:09;6.10;;;1.97;;
68944;SDS011;55984;48.790;8.990;2022-11-02T09:11:34;7.97;;;2.53;;
68944;SDS011;55984;48.790;8.990;2022-11-02T09:13:59;7.03;;;2.50;;
68944;SDS011;55984;48.790;8.990;2022-11-02T09:16:26;7.00;;;2.23;;
68944;SDS011;55984;48.790;8.990;2022-11-02T09:18:51;8.20;;;2.03;;
68944;SDS011;55984;48.790;8.990;2022-11-02T09:21:17;7.57;;;2.13;;
68944;SDS011;55984;48.790;8.990;2022-11-02T09:23:42;7.43;;;2.40;;
68944;SDS011;55984;48.790;8.990;2022-11-02T09:26:08;8.37;;;2.30;;
68944;SDS011;55984;48.790;8.990;2022-11-02T09:28:33;7.90;;;2.40;;
68944;SDS011;55984;48.790;8.990;2022-11-02T09:30:59;12.13;;;2.60;;
68944;SDS011;55984;48.790;8.990;2022-11-02T09:33:24;5.60;;;1.87;;
68944;SDS011;55984;48.790;8.990;2022-11-02T09:35:49;8.33;;;1.97;;
68944;SDS011;55984;48.790;8.990;2022-11-02T09:38:15;7.70;;;1.87;;
68944;SDS011;55984;48.790;8.990;2022-11-02T09:40:45;7.60;;;2.07;;
68944;SDS011;55984;48.790;8.990;2022-11-02T09:43:38;10.83;;;2.70;;
68944;SDS011;55984;48.790;8.990;2022-11-02T09:46:30;7.40;;;2.40;;
68944;SDS011;55984;48.790;8.990;2022-11-02T09:49:03;13.37;;;2.37;;
68944;SDS011;55984;48.790;8.990;2022-11-02T09:54:18;9.70;;;2.00;;
68944;SDS011;55984;48.790;8.990;2022-11-02T09:56:49;5.87;;;2.10;;
68944;SDS011;55984;48.790;8.990;2022-11-02T09:59:20;7.00;;;2.17;;
68944;SDS011;55984;48.790;8.990;2022-11-02T10:18:55;10.20;;;2.07;;
68944;SDS011;55984;48.790;8.990;2022-11-02T10:21:42;8.50;;;2.07;;
68944;SDS011;55984;48.790;8.990;2022-11-02T10:27:01;7.47;;;2.13;;
68944;SDS011;55984;48.790;8.990;2022-11-02T10:32:34;9.60;;;2.43;;
68944;SDS011;55984;48.790;8.990;2022-11-02T10:46:28;9.33;;;2.00;;
68944;SDS011;55984;48.790;8.990;2022-11-02T10:49:18;5.63;;;2.40;;
68944;SDS011;55984;48.790;8.990;2022-11-02T10:51:46;9.03;;;2.20;;
68944;SDS011;55984;48.790;8.990;2022-11-02T10:54:13;4.77;;;2.10;;
68944;SDS011;55984;48.790;8.990;2022-11-02T10:59:18;6.23;;;2.53;;
68944;SDS011;55984;48.790;8.990;2022-11-02T11:04:30;4.80;;;1.83;;
68944;SDS011;55984;48.790;8.990;2022-11-02T11:06:57;9.87;;;2.20;;
68944;SDS011;55984;48.790;8.990;2022-11-02T11:09:35;10.73;;;2.33;;
68944;SDS011;55984;48.790;8.990;2022-11-02T11:12:16;7.60;;;1.90;;
68944;SDS011;55984;48.790;8.990;2022-11-02T11:14:54;8.00;;;2.10;;
68944;SDS011;55984;48.790;8.990;2022-11-02T11:17:31;10.20;;;2.30;;
68944;SDS011;55984;48.790;8.990;2022-11-02T11:20:00;3.97;;;1.90;;
68944;SDS011;55984;48.790;8.990;2022-11-02T11:23:35;4.17;;;2.17;;
68944;SDS011;55984;48.790;8.990;2022-11-02T11:25:39;5.13;;;1.80;;
68944;SDS011;55984;48.790;8.990;2022-11-02T11:28:22;5.60;;;2.00;;
68944;SDS011;55984;48.790;8.990;2022-11-02T11:31:12;4.80;;;2.03;;
68944;SDS011;55984;48.790;8.990;2022-11-02T11:39:32;6.53;;;1.97;;
68944;SDS011;55984;48.790;8.990;2022-11-02T11:42:00;9.27;;;2.23;;
68944;SDS011;55984;48.790;8.990;2022-11-02T11:44:28;7.63;;;1.97;;
68944;SDS011;55984;48.790;8.990;2022-11-02T11:46:55;7.20;;;2.07;;
68944;SDS011;55984;48.790;8.990;2022-11-02T11:49:24;6.90;;;1.80;;
68944;SDS011;55984;48.790;8.990;2022-11-02T11:51:54;4.57;;;2.07;;
68944;SDS011;55984;48.790;8.990;2022-11-02T11:56:58;5.63;;;2.20;;
68944;SDS011;55984;48.790;8.990;2022-11-02T12:02:18;8.20;;;1.90;;
68944;SDS011;55984;48.790;8.990;2022-11-02T12:04:57;5.77;;;1.77;;
68944;SDS011;55984;48.790;8.990;2022-11-02T12:07:46;5.53;;;1.97;;
68944;SDS011;55984;48.790;8.990;2022-11-02T12:10:41;8.53;;;2.33;;
68944;SDS011;55984;48.790;8.990;2022-11-02T12:16:08;11.70;;;2.30;;
68944;SDS011;55984;48.790;8.990;2022-11-02T12:22:01;6.93;;;2.13;;
68944;SDS011;55984;48.790;8.990;2022-11-02T12:27:26;10.87;;;2.37;;
68944;SDS011;55984;48.790;8.990;2022-11-02T12:41:09;6.70;;;1.87;;
68944;SDS011;55984;48.790;8.990;2022-11-02T12:54:42;5.60;;;2.13;;
68944;SDS011;55984;48.790;8.990;2022-11-02T12:57:20;6.50;;;2.00;;
68944;SDS011;55984;48.790;8.990;2022-11-02T12:59:52;7.73;;;2.17;;
68944;SDS011;55984;48.790;8.990;2022-11-02T13:02:38;4.73;;;1.87;;
68944;SDS011;55984;48.790;8.990;2022-11-02T13:05:11;5.27;;;2.00;;
68944;SDS011;55984;48.790;8.990;2022-11-02T13:07:43;11.23;;;2.20;;
68944;SDS011;55984;48.790;8.990;2022-11-02T13:10:18;5.90;;;2.00;;
68944;SDS011;55984;48.790;8.990;2022-11-02T13:12:47;7.63;;;2.47;;
68944;SDS011;55984;48.790;8.990;2022-11-02T13:15:21;13.07;;;2.70;;
68944;SDS011;55984;48.790;8.990;2022-11-02T13:17:57;8.37;;;2.17;;
68944;SDS011;55984;48.790;8.990;2022-11-02T13:20:50;6.50;;;2.10;;
68944;SDS011;55984;48.790;8.990;2022-11-02T13:25:58;8.93;;;2.50;;
68944;SDS011;55984;48.790;8.990;2022-11-02T13:30:59;9.90;;;2.70;;
68944;SDS011;55984;48.790;8.990;2022-11-02T13:33:29;10.00;;;2.67;;
68944;SDS011;55984;48.790;8.990;2022-11-02T13:36:05;8.17;;;2.20;;
68944;SDS011;55984;48.790;8.990;2022-11-02T13:50:13;7.27;;;2.20;;
68944;SDS011;55984;48.790;8.990;2022-11-02T13:56:19;9.73;;;2.33;;
68944;SDS011;55984;48.790;8.990;2022-11-02T13:59:07;10.57;;;2.57;;
68944;SDS011;55984;48.790;8.990;2022-11-02T14:01:42;8.90;;;2.40;;
68944;SDS011;55984;48.790;8.990;2022-11-02T14:04:12;10.60;;;2.50;;
68944;SDS011;55984;48.790;8.990;2022-11-02T14:06:50;10.97;;;2.70;;
68944;SDS011;55984;48.790;8.990;2022-11-02T14:09:27;8.10;;;2.23;;
68944;SDS011;55984;48.790;8.990;2022-11-02T14:12:11;12.13;;;2.30;;
68944;SDS011;55984;48.790;8.990;2022-11-02T14:18:01;10.40;;;2.50;;
68944;SDS011;55984;48.790;8.990;2022-11-02T14:30:06;8.30;;;2.10;;
68944;SDS011;55984;48.790;8.990;2022-11-02T14:33:34;8.13;;;2.37;;
68944;SDS011;55984;48.790;8.990;2022-11-02T14:36:51;7.47;;;2.50;;
68944;SDS011;55984;48.790;8.990;2022-11-02T14:47:33;7.53;;;2.30;;
68944;SDS011;55984;48.790;8.990;2022-11-02T14:50:06;6.97;;;2.10;;
68944;SDS011;55984;48.790;8.990;2022-11-02T14:52:41;7.93;;;2.00;;
68944;SDS011;55984;48.790;8.990;2022-11-02T14:55:25;6.27;;;2.13;;
68944;SDS011;55984;48.790;8.990;2022-11-02T14:58:06;7.00;;;2.40;;
68944;SDS011;55984;48.790;8.990;2022-11-02T15:01:06;7.93;;;2.33;;
68944;SDS011;55984;48.790;8.990;2022-11-02T15:03:39;8.00;;;2.10;;
68944;SDS011;55984;48.790;8.990;2022-11-02T15:06:18;5.33;;;2.33;;
68944;SDS011;55984;48.790;8.990;2022-11-02T15:09:04;7.60;;;2.07;;
68944;SDS011;55984;48.790;8.990;2022-11-02T15:19:41;10.47;;;2.47;;
68944;SDS011;55984;48.790;8.990;2022-11-02T15:27:36;9.33;;;2.27;;
68944;SDS011;55984;48.790;8.990;2022-11-02T15:30:06;5.90;;;2.33;;
68944;SDS011;55984;48.790;8.990;2022-11-02T15:32:51;8.90;;;2.33;;
68944;SDS011;55984;48.790;8.990;2022-11-02T15:35:22;7.10;;;2.60;;
68944;SDS011;55984;48.790;8.990;2022-11-02T15:37:50;15.50;;;3.87;;
68944;SDS011;55984;48.790;8.990;2022-11-02T15:40:21;12.60;;;3.70;;
68944;SDS011;55984;48.790;8.990;2022-11-02T15:43:06;20.23;;;2.93;;
68944;SDS011;55984;48.790;8.990;2022-11-02T15:45:47;13.20;;;3.03;;
68944;SDS011;55984;48.790;8.990;2022-11-02T15:48:30;8.70;;;2.77;;
68944;SDS011;55984;48.790;8.990;2022-11-02T15:51:04;18.83;;;3.30;;
68944;SDS011;55984;48.790;8.990;2022-11-02T15:54:17;12.23;;;2.90;;
68944;SDS011;55984;48.790;8.990;2022-11-02T15:57:01;10.23;;;3.03;;
68944;SDS011;55984;48.790;8.990;2022-11-02T16:02:24;21.13;;;3.90;;
68944;SDS011;55984;48.790;8.990;2022-11-02T16:04:54;22.10;;;3.17;;
68944;SDS011;55984;48.790;8.990;2022-11-02T16:07:21;10.90;;;3.50;;
68944;SDS011;55984;48.790;8.990;2022-11-02T16:09:47;22.23;;;4.60;;
68944;SDS011;55984;48.790;8.990;2022-11-02T16:12:17;25.10;;;4.07;;
68944;SDS011;55984;48.790;8.990;2022-11-02T16:14:53;13.27;;;4.07;;
68944;SDS011;55984;48.790;8.990;2022-11-02T16:19:53;19.70;;;5.83;;
68944;SDS011;55984;48.790;8.990;2022-11-02T16:22:36;19.77;;;5.53;;
68944;SDS011;55984;48.790;8.990;2022-11-02T16:25:06;22.80;;;5.43;;
68944;SDS011;55984;48.790;8.990;2022-11-02T16:27:36;16.10;;;4.97;;
68944;SDS011;55984;48.790;8.990;2022-11-02T16:30:02;19.47;;;5.57;;
68944;SDS011;55984;48.790;8.990;2022-11-02T16:32:29;13.17;;;5.63;;
68944;SDS011;55984;48.790;8.990;2022-11-02T16:34:55;21.80;;;7.10;;
68944;SDS011;55984;48.790;8.990;2022-11-02T16:37:22;25.17;;;5.63;;
68944;SDS011;55984;48.790;8.990;2022-11-02T16:39:48;22.67;;;5.90;;
68944;SDS011;55984;48.790;8.990;2022-11-02T16:42:16;24.17;;;9.00;;
68944;SDS011;55984;48.790;8.990;2022-11-02T16:44:53;33.90;;;8.37;;
68944;SDS011;55984;48.790;8.990;2022-11-02T16:47:26;34.70;;;8.40;;
68944;SDS011;55984;48.790;8.990;2022-11-02T16:49:58;26.90;;;7.30;;
68944;SDS011;55984;48.790;8.990;2022-11-02T16:55:27;28.73;;;7.60;;
68944;SDS011;55984;48.790;8.990;2022-11-02T16:58:02;32.20;;;13.80;;
68944;SDS011;55984;48.790;8.990;2022-11-02T17:00:28;37.20;;;15.37;;
68944;SDS011;55984;48.790;8.990;2022-11-02T17:02:54;47.07;;;14.70;;
68944;SDS011;55984;48.790;8.990;2022-11-02T17:05:21;28.07;;;11.70;;
68944;SDS011;55984;48.790;8.990;2022-11-02T17:07:53;23.10;;;8.10;;
68944;SDS011;55984;48.790;8.990;2022-11-02T17:10:24;25.30;;;8.90;;
68944;SDS011;55984;48.790;8.990;2022-11-02T17:12:51;35.93;;;9.40;;
68944;SDS011;55984;48.790;8.990;2022-11-02T17:15:19;33.57;;;8.80;;
68944;SDS011;55984;48.790;8.990;2022-11-02T17:17:46;32.23;;;8.60;;
68944;SDS011;55984;48.790;8.990;2022-11-02T17:23:02;29.73;;;7.20;;
68944;SDS011;55984;48.790;8.990;2022-11-02T17:25:34;23.00;;;6.30;;
68944;SDS011;55984;48.790;8.990;2022-11-02T17:28:01;35.47;;;6.50;;
68944;SDS011;55984;48.790;8.990;2022-11-02T17:32:58;20.53;;;6.53;;
68944;SDS011;55984;48.790;8.990;2022-11-02T17:35:30;18.90;;;7.23;;
68944;SDS011;55984;48.790;8.990;2022-11-02T17:37:56;30.10;;;7.20;;
68944;SDS011;55984;48.790;8.990;2022-11-02T17:40:21;22.83;;;6.40;;
68944;SDS011;55984;48.790;8.990;2022-11-02T17:42:47;23.30;;;5.90;;
68944;SDS011;55984;48.790;8.990;2022-11-02T17:45:29;16.07;;;5.90;;
68944;SDS011;55984;48.790;8.990;2022-11-02T17:48:03;25.77;;;6.70;;
68944;SDS011;55984;48.790;8.990;2022-11-02T17:50:31;22.90;;;7.20;;
68944;SDS011;55984;48.790;8.990;2022-11-02T17:52:58;26.60;;;7.60;;
68944;SDS011;55984;48.790;8.990;2022-11-02T17:55:26;23.13;;;6.30;;